sensor_id;sensor_type;location;lat;lon;timestamp;temperature;humidity
22114;DHT22;11223;49.968;9.062;2022-12-24T00:02:14;8.90;99.90
22114;DHT22;11223;49.968;9.062;2022-12-24T00:04:39;8.90;99.90
22114;DHT22;11223;49.968;9.062;2022-12-24T00:07:05;8.90;99.90
22114;DHT22;11223;49.968;9.062;2022-12-24T00:09:31;8.90;99.90
22114;DHT22;11223;49.968;9.062;2022-12-24T00:11:56;8.90;99.90
22114;DHT22;11223;49.968;9.062;2022-12-24T00:14:22;8.80;99.90
22114;DHT22;11223;49.968;9.062;2022-12-24T00:16:47;8.80;99.90
22114;DHT22;11223;49.968;9.062;2022-12-24T00:19:13;8.70;99.90
22114;DHT22;11223;49.968;9.062;2022-12-24T00:21:39;8.70;99.90
22114;DHT22;11223;49.968;9.062;2022-12-24T00:24:04;8.70;99.90
22114;DHT22;11223;49.968;9.062;2022-12-24T00:26:34;8.70;99.90
22114;DHT22;11223;49.968;9.062;2022-12-24T00:29:00;8.60;99.90
22114;DHT22;11223;49.968;9.062;2022-12-24T00:31:27;8.70;99.90
22114;DHT22;11223;49.968;9.062;2022-12-24T00:33:52;8.60;99.90
22114;DHT22;11223;49.968;9.062;2022-12-24T00:36:19;8.60;99.90
22114;DHT22;11223;49.968;9.062;2022-12-24T00:38:45;8.60;99.90
22114;DHT22;11223;49.968;9.062;2022-12-24T00:41:11;8.60;99.90
22114;DHT22;11223;49.968;9.062;2022-12-24T00:44:01;8.70;99.90
22114;DHT22;11223;49.968;9.062;2022-12-24T00:46:28;8.70;99.90
22114;DHT22;11223;49.968;9.062;2022-12-24T00:48:54;8.70;99.90
22114;DHT22;11223;49.968;9.062;2022-12-24T00:51:21;8.70;99.90
22114;DHT22;11223;49.968;9.062;2022-12-24T00:53:47;8.70;99.90
22114;DHT22;11223;49.968;9.062;2022-12-24T00:56:13;8.70;99.90
22114;DHT22;11223;49.968;9.062;2022-12-24T00:58:39;8.60;99.90
22114;DHT22;11223;49.968;9.062;2022-12-24T01:01:05;8.70;99.90
22114;DHT22;11223;49.968;9.062;2022-12-24T01:03:31;8.70;99.90
22114;DHT22;11223;49.968;9.062;2022-12-24T01:06:08;8.70;99.90
22114;DHT22;11223;49.968;9.062;2022-12-24T01:08:34;8.70;99.90
22114;DHT22;11223;49.968;9.062;2022-12-24T01:11:02;8.70;99.90
22114;DHT22;11223;49.968;9.062;2022-12-24T01:13:28;8.70;99.90
22114;DHT22;11223;49.968;9.062;2022-12-24T01:15:54;8.60;99.90
22114;DHT22;11223;49.968;9.062;2022-12-24T01:18:20;8.70;99.90
22114;DHT22;11223;49.968;9.062;2022-12-24T01:20:57;8.60;99.90
22114;DHT22;11223;49.968;9.062;2022-12-24T01:23:24;8.60;99.90
22114;DHT22;11223;49.968;9.062;2022-12-24T01:25:50;8.60;99.90
22114;DHT22;11223;49.968;9.062;2022-12-24T01:28:15;8.70;99.90
22114;DHT22;11223;49.968;9.062;2022-12-24T01:30:41;8.60;99.90
22114;DHT22;11223;49.968;9.062;2022-12-24T01:33:07;8.60;99.90
22114;DHT22;11223;49.968;9.062;2022-12-24T01:35:33;8.60;99.90
22114;DHT22;11223;49.968;9.062;2022-12-24T01:37:58;8.60;99.90
22114;DHT22;11223;49.968;9.062;2022-12-24T01:40:25;8.60;99.90
22114;DHT22;11223;49.968;9.062;2022-12-24T01:43:16;8.60;99.90
22114;DHT22;11223;49.968;9.062;2022-12-24T01:48:40;8.50;99.90
22114;DHT22;11223;49.968;9.062;2022-12-24T01:51:36;8.50;99.90
22114;DHT22;11223;49.968;9.062;2022-12-24T01:54:49;8.50;99.90
22114;DHT22;11223;49.968;9.062;2022-12-24T01:57:11;8.50;99.90
22114;DHT22;11223;49.968;9.062;2022-12-24T01:59:40;8.50;99.90
22114;DHT22;11223;49.968;9.062;2022-12-24T02:02:07;8.50;99.90
22114;DHT22;11223;49.968;9.062;2022-12-24T02:04:39;8.50;99.90
22114;DHT22;11223;49.968;9.062;2022-12-24T02:07:05;8.50;99.90
22114;DHT22;11223;49.968;9.062;2022-12-24T02:09:33;8.50;99.90
22114;DHT22;11223;49.968;9.062;2022-12-24T02:12:00;8.50;99.90
22114;DHT22;11223;49.968;9.062;2022-12-24T02:14:27;8.50;99.90
22114;DHT22;11223;49.968;9.062;2022-12-24T02:30:47;8.40;99.90
22114;DHT22;11223;49.968;9.062;2022-12-24T02:33:29;8.40;99.90
22114;DHT22;11223;49.968;9.062;2022-12-24T02:36:42;8.40;99.90
22114;DHT22;11223;49.968;9.062;2022-12-24T02:39:11;8.40;99.90
22114;DHT22;11223;49.968;9.062;2022-12-24T02:41:41;8.40;99.90
22114;DHT22;11223;49.968;9.062;2022-12-24T02:44:29;8.40;99.90
22114;DHT22;11223;49.968;9.062;2022-12-24T02:46:58;8.40;99.90
22114;DHT22;11223;49.968;9.062;2022-12-24T02:49:24;8.40;99.90
22114;DHT22;11223;49.968;9.062;2022-12-24T02:51:50;8.40;99.90
22114;DHT22;11223;49.968;9.062;2022-12-24T02:54:16;8.40;99.90
22114;DHT22;11223;49.968;9.062;2022-12-24T02:57:05;8.40;99.90
22114;DHT22;11223;49.968;9.062;2022-12-24T03:08:07;8.50;99.90
22114;DHT22;11223;49.968;9.062;2022-12-24T03:13:18;8.50;99.90
22114;DHT22;11223;49.968;9.062;2022-12-24T03:15:46;8.50;99.90
22114;DHT22;11223;49.968;9.062;2022-12-24T03:18:16;8.50;99.90
22114;DHT22;11223;49.968;9.062;2022-12-24T03:20:51;8.50;99.90
22114;DHT22;11223;49.968;9.062;2022-12-24T03:23:19;8.50;99.90
22114;DHT22;11223;49.968;9.062;2022-12-24T03:25:45;8.50;99.90
22114;DHT22;11223;49.968;9.062;2022-12-24T03:28:15;8.50;99.90
22114;DHT22;11223;49.968;9.062;2022-12-24T03:30:43;8.50;99.90
22114;DHT22;11223;49.968;9.062;2022-12-24T03:33:10;8.50;99.90
22114;DHT22;11223;49.968;9.062;2022-12-24T03:35:36;8.50;99.90
22114;DHT22;11223;49.968;9.062;2022-12-24T03:38:02;8.40;99.90
22114;DHT22;11223;49.968;9.062;2022-12-24T03:40:27;8.50;99.90
22114;DHT22;11223;49.968;9.062;2022-12-24T03:42:53;8.40;99.90
22114;DHT22;11223;49.968;9.062;2022-12-24T03:45:19;8.50;99.90
22114;DHT22;11223;49.968;9.062;2022-12-24T03:47:44;8.50;99.90
22114;DHT22;11223;49.968;9.062;2022-12-24T03:50:10;8.50;99.90
22114;DHT22;11223;49.968;9.062;2022-12-24T03:52:36;8.50;99.90
22114;DHT22;11223;49.968;9.062;2022-12-24T03:55:02;8.40;99.90
22114;DHT22;11223;49.968;9.062;2022-12-24T03:57:27;8.40;99.90
22114;DHT22;11223;49.968;9.062;2022-12-24T03:59:53;8.40;99.90
22114;DHT22;11223;49.968;9.062;2022-12-24T04:02:19;8.40;99.90
22114;DHT22;11223;49.968;9.062;2022-12-24T04:04:44;8.40;99.90
22114;DHT22;11223;49.968;9.062;2022-12-24T04:07:10;8.30;99.90
22114;DHT22;11223;49.968;9.062;2022-12-24T04:09:36;8.30;99.90
22114;DHT22;11223;49.968;9.062;2022-12-24T04:12:03;8.30;99.90
22114;DHT22;11223;49.968;9.062;2022-12-24T04:14:29;8.30;99.90
22114;DHT22;11223;49.968;9.062;2022-12-24T04:16:54;8.30;99.90
22114;DHT22;11223;49.968;9.062;2022-12-24T04:19:20;8.30;99.90
22114;DHT22;11223;49.968;9.062;2022-12-24T04:21:46;8.30;99.90
22114;DHT22;11223;49.968;9.062;2022-12-24T04:24:12;8.30;99.90
22114;DHT22;11223;49.968;9.062;2022-12-24T04:26:37;8.40;99.90
22114;DHT22;11223;49.968;9.062;2022-12-24T04:29:03;8.30;99.90
22114;DHT22;11223;49.968;9.062;2022-12-24T04:31:29;8.30;99.90
22114;DHT22;11223;49.968;9.062;2022-12-24T04:33:54;8.30;99.90
22114;DHT22;11223;49.968;9.062;2022-12-24T04:36:20;8.30;99.90
22114;DHT22;11223;49.968;9.062;2022-12-24T04:38:46;8.30;99.90
22114;DHT22;11223;49.968;9.062;2022-12-24T04:41:15;8.30;99.90
22114;DHT22;11223;49.968;9.062;2022-12-24T04:43:41;8.30;99.90
22114;DHT22;11223;49.968;9.062;2022-12-24T04:46:15;8.40;99.90
22114;DHT22;11223;49.968;9.062;2022-12-24T04:48:46;8.40;99.90
22114;DHT22;11223;49.968;9.062;2022-12-24T04:51:13;8.30;99.90
22114;DHT22;11223;49.968;9.062;2022-12-24T04:53:39;8.30;99.90
22114;DHT22;11223;49.968;9.062;2022-12-24T04:56:11;8.30;99.90
22114;DHT22;11223;49.968;9.062;2022-12-24T04:58:37;8.30;99.90
22114;DHT22;11223;49.968;9.062;2022-12-24T05:01:05;8.30;99.90
22114;DHT22;11223;49.968;9.062;2022-12-24T05:03:30;8.30;99.90
22114;DHT22;11223;49.968;9.062;2022-12-24T05:06:03;8.30;99.90
22114;DHT22;11223;49.968;9.062;2022-12-24T05:08:29;8.30;99.90
22114;DHT22;11223;49.968;9.062;2022-12-24T05:10:56;8.20;99.90
22114;DHT22;11223;49.968;9.062;2022-12-24T05:13:22;8.20;99.90
22114;DHT22;11223;49.968;9.062;2022-12-24T05:15:48;8.20;99.90
22114;DHT22;11223;49.968;9.062;2022-12-24T05:18:13;8.20;99.90
22114;DHT22;11223;49.968;9.062;2022-12-24T05:20:42;8.20;99.90
22114;DHT22;11223;49.968;9.062;2022-12-24T05:23:21;8.20;99.90
22114;DHT22;11223;49.968;9.062;2022-12-24T05:28:56;8.30;99.90
22114;DHT22;11223;49.968;9.062;2022-12-24T05:31:23;8.30;99.90
22114;DHT22;11223;49.968;9.062;2022-12-24T05:33:50;8.30;99.90
22114;DHT22;11223;49.968;9.062;2022-12-24T05:36:16;8.30;99.90
22114;DHT22;11223;49.968;9.062;2022-12-24T05:38:41;8.30;99.90
22114;DHT22;11223;49.968;9.062;2022-12-24T05:41:07;8.30;99.90
22114;DHT22;11223;49.968;9.062;2022-12-24T05:43:34;8.30;99.90
22114;DHT22;11223;49.968;9.062;2022-12-24T05:46:02;8.30;99.90
22114;DHT22;11223;49.968;9.062;2022-12-24T05:48:28;8.40;99.90
22114;DHT22;11223;49.968;9.062;2022-12-24T05:50:54;8.40;99.90
22114;DHT22;11223;49.968;9.062;2022-12-24T05:53:20;8.40;99.90
22114;DHT22;11223;49.968;9.062;2022-12-24T05:55:47;8.40;99.90
22114;DHT22;11223;49.968;9.062;2022-12-24T05:58:13;8.40;99.90
22114;DHT22;11223;49.968;9.062;2022-12-24T06:00:39;8.40;99.90
22114;DHT22;11223;49.968;9.062;2022-12-24T06:03:04;8.40;99.90
22114;DHT22;11223;49.968;9.062;2022-12-24T06:05:30;8.40;99.90
22114;DHT22;11223;49.968;9.062;2022-12-24T06:07:55;8.30;99.90
22114;DHT22;11223;49.968;9.062;2022-12-24T06:10:21;8.30;99.90
22114;DHT22;11223;49.968;9.062;2022-12-24T06:12:47;8.30;99.90
22114;DHT22;11223;49.968;9.062;2022-12-24T06:15:13;8.30;99.90
22114;DHT22;11223;49.968;9.062;2022-12-24T06:17:39;8.30;99.90
22114;DHT22;11223;49.968;9.062;2022-12-24T06:20:06;8.30;99.90
22114;DHT22;11223;49.968;9.062;2022-12-24T06:22:31;8.20;99.90
22114;DHT22;11223;49.968;9.062;2022-12-24T06:24:57;8.30;99.90
22114;DHT22;11223;49.968;9.062;2022-12-24T06:27:22;8.20;99.90
22114;DHT22;11223;49.968;9.062;2022-12-24T06:29:49;8.30;99.90
22114;DHT22;11223;49.968;9.062;2022-12-24T06:32:14;8.30;99.90
22114;DHT22;11223;49.968;9.062;2022-12-24T06:34:40;8.30;99.90
22114;DHT22;11223;49.968;9.062;2022-12-24T06:37:05;8.30;99.90
22114;DHT22;11223;49.968;9.062;2022-12-24T06:39:31;8.30;99.90
22114;DHT22;11223;49.968;9.062;2022-12-24T06:41:57;8.30;99.90
22114;DHT22;11223;49.968;9.062;2022-12-24T06:44:22;8.30;99.90
22114;DHT22;11223;49.968;9.062;2022-12-24T06:46:48;8.30;99.90
22114;DHT22;11223;49.968;9.062;2022-12-24T06:49:14;8.30;99.90
22114;DHT22;11223;49.968;9.062;2022-12-24T06:51:39;8.40;99.90
22114;DHT22;11223;49.968;9.062;2022-12-24T06:54:06;8.40;99.90
22114;DHT22;11223;49.968;9.062;2022-12-24T06:56:31;8.50;99.90
22114;DHT22;11223;49.968;9.062;2022-12-24T06:58:57;8.50;99.90
22114;DHT22;11223;49.968;9.062;2022-12-24T07:01:22;8.60;99.90
22114;DHT22;11223;49.968;9.062;2022-12-24T07:03:48;8.60;99.90
22114;DHT22;11223;49.968;9.062;2022-12-24T07:06:18;8.70;99.90
22114;DHT22;11223;49.968;9.062;2022-12-24T07:08:44;8.70;99.90
22114;DHT22;11223;49.968;9.062;2022-12-24T07:11:10;8.70;99.90
22114;DHT22;11223;49.968;9.062;2022-12-24T07:13:36;8.70;99.90
22114;DHT22;11223;49.968;9.062;2022-12-24T07:16:02;8.70;99.90
22114;DHT22;11223;49.968;9.062;2022-12-24T07:18:29;8.70;99.90
22114;DHT22;11223;49.968;9.062;2022-12-24T07:20:55;8.70;99.90
22114;DHT22;11223;49.968;9.062;2022-12-24T07:23:21;8.70;99.90
22114;DHT22;11223;49.968;9.062;2022-12-24T07:25:46;8.70;99.90
22114;DHT22;11223;49.968;9.062;2022-12-24T07:28:12;8.80;99.90
22114;DHT22;11223;49.968;9.062;2022-12-24T07:30:37;8.80;99.90
22114;DHT22;11223;49.968;9.062;2022-12-24T07:33:03;8.80;99.90
22114;DHT22;11223;49.968;9.062;2022-12-24T07:35:29;8.80;99.90
22114;DHT22;11223;49.968;9.062;2022-12-24T07:37:54;8.80;99.90
22114;DHT22;11223;49.968;9.062;2022-12-24T07:40:20;8.90;99.90
22114;DHT22;11223;49.968;9.062;2022-12-24T07:42:45;8.90;99.90
22114;DHT22;11223;49.968;9.062;2022-12-24T07:45:11;8.90;99.90
22114;DHT22;11223;49.968;9.062;2022-12-24T07:47:36;9.00;99.90
22114;DHT22;11223;49.968;9.062;2022-12-24T07:50:04;9.00;99.90
22114;DHT22;11223;49.968;9.062;2022-12-24T07:52:30;9.10;99.90
22114;DHT22;11223;49.968;9.062;2022-12-24T07:54:55;9.10;99.90
22114;DHT22;11223;49.968;9.062;2022-12-24T07:57:21;9.10;99.90
22114;DHT22;11223;49.968;9.062;2022-12-24T07:59:46;9.10;99.90
22114;DHT22;11223;49.968;9.062;2022-12-24T08:02:12;9.10;99.90
22114;DHT22;11223;49.968;9.062;2022-12-24T08:04:38;9.10;99.90
22114;DHT22;11223;49.968;9.062;2022-12-24T08:07:05;9.10;99.90
22114;DHT22;11223;49.968;9.062;2022-12-24T08:09:32;9.10;99.90
22114;DHT22;11223;49.968;9.062;2022-12-24T08:11:58;9.10;99.90
22114;DHT22;11223;49.968;9.062;2022-12-24T08:14:24;9.10;99.90
22114;DHT22;11223;49.968;9.062;2022-12-24T08:16:50;9.10;99.90
22114;DHT22;11223;49.968;9.062;2022-12-24T08:19:15;9.10;99.90
22114;DHT22;11223;49.968;9.062;2022-12-24T08:21:41;9.10;99.90
22114;DHT22;11223;49.968;9.062;2022-12-24T08:24:07;9.10;99.90
22114;DHT22;11223;49.968;9.062;2022-12-24T08:26:32;9.20;99.90
22114;DHT22;11223;49.968;9.062;2022-12-24T08:28:58;9.20;99.90
22114;DHT22;11223;49.968;9.062;2022-12-24T08:31:24;9.20;99.90
22114;DHT22;11223;49.968;9.062;2022-12-24T08:33:49;9.20;99.90
22114;DHT22;11223;49.968;9.062;2022-12-24T08:36:15;9.20;99.90
22114;DHT22;11223;49.968;9.062;2022-12-24T08:38:41;9.20;99.90
22114;DHT22;11223;49.968;9.062;2022-12-24T08:41:06;9.20;99.90
22114;DHT22;11223;49.968;9.062;2022-12-24T08:43:32;9.30;99.90
22114;DHT22;11223;49.968;9.062;2022-12-24T08:46:04;9.30;99.90
22114;DHT22;11223;49.968;9.062;2022-12-24T08:48:31;9.30;99.90
22114;DHT22;11223;49.968;9.062;2022-12-24T08:50:57;9.30;99.90
22114;DHT22;11223;49.968;9.062;2022-12-24T08:53:23;9.30;99.90
22114;DHT22;11223;49.968;9.062;2022-12-24T08:55:49;9.40;99.90
22114;DHT22;11223;49.968;9.062;2022-12-24T08:58:14;9.40;99.90
22114;DHT22;11223;49.968;9.062;2022-12-24T09:00:40;9.40;99.90
22114;DHT22;11223;49.968;9.062;2022-12-24T09:03:06;9.40;99.90
22114;DHT22;11223;49.968;9.062;2022-12-24T09:05:31;9.40;99.90
22114;DHT22;11223;49.968;9.062;2022-12-24T09:07:57;9.50;99.90
22114;DHT22;11223;49.968;9.062;2022-12-24T09:10:22;9.50;99.90
22114;DHT22;11223;49.968;9.062;2022-12-24T09:12:48;9.50;99.90
22114;DHT22;11223;49.968;9.062;2022-12-24T09:15:15;9.50;99.90
22114;DHT22;11223;49.968;9.062;2022-12-24T09:17:41;9.50;99.90
22114;DHT22;11223;49.968;9.062;2022-12-24T09:20:07;9.50;99.90
22114;DHT22;11223;49.968;9.062;2022-12-24T09:22:34;9.50;99.90
22114;DHT22;11223;49.968;9.062;2022-12-24T09:25:01;9.50;99.90
22114;DHT22;11223;49.968;9.062;2022-12-24T09:27:29;9.60;99.90
22114;DHT22;11223;49.968;9.062;2022-12-24T09:29:55;9.60;99.90
22114;DHT22;11223;49.968;9.062;2022-12-24T09:32:20;9.70;99.90
22114;DHT22;11223;49.968;9.062;2022-12-24T09:34:46;9.80;99.90
22114;DHT22;11223;49.968;9.062;2022-12-24T09:37:11;10.00;99.90
22114;DHT22;11223;49.968;9.062;2022-12-24T09:39:37;10.00;99.90
22114;DHT22;11223;49.968;9.062;2022-12-24T09:45:04;10.10;99.90
22114;DHT22;11223;49.968;9.062;2022-12-24T09:47:51;10.20;99.90
22114;DHT22;11223;49.968;9.062;2022-12-24T09:53:11;10.20;99.90
22114;DHT22;11223;49.968;9.062;2022-12-24T09:55:45;10.20;99.90
22114;DHT22;11223;49.968;9.062;2022-12-24T09:58:42;10.20;99.90
22114;DHT22;11223;49.968;9.062;2022-12-24T10:01:14;10.20;99.90
22114;DHT22;11223;49.968;9.062;2022-12-24T10:03:40;10.10;99.90
22114;DHT22;11223;49.968;9.062;2022-12-24T10:06:56;10.10;99.90
22114;DHT22;11223;49.968;9.062;2022-12-24T10:27:40;10.50;99.90
22114;DHT22;11223;49.968;9.062;2022-12-24T10:30:14;10.50;99.90
22114;DHT22;11223;49.968;9.062;2022-12-24T10:32:41;10.40;99.90
22114;DHT22;11223;49.968;9.062;2022-12-24T10:37:46;10.50;99.90
22114;DHT22;11223;49.968;9.062;2022-12-24T10:40:23;10.80;99.90
22114;DHT22;11223;49.968;9.062;2022-12-24T10:42:49;11.00;99.90
22114;DHT22;11223;49.968;9.062;2022-12-24T10:45:19;11.40;99.90
22114;DHT22;11223;49.968;9.062;2022-12-24T10:47:50;11.70;99.90
22114;DHT22;11223;49.968;9.062;2022-12-24T10:52:54;11.80;99.90
22114;DHT22;11223;49.968;9.062;2022-12-24T10:55:23;11.80;99.90
22114;DHT22;11223;49.968;9.062;2022-12-24T10:58:09;11.80;99.90
22114;DHT22;11223;49.968;9.062;2022-12-24T11:00:37;12.00;99.90
22114;DHT22;11223;49.968;9.062;2022-12-24T11:03:15;12.30;99.90
22114;DHT22;11223;49.968;9.062;2022-12-24T11:05:45;12.50;99.90
22114;DHT22;11223;49.968;9.062;2022-12-24T11:08:17;12.50;99.90
22114;DHT22;11223;49.968;9.062;2022-12-24T11:11:01;12.60;99.90
22114;DHT22;11223;49.968;9.062;2022-12-24T11:16:38;12.80;99.90
22114;DHT22;11223;49.968;9.062;2022-12-24T11:19:05;12.90;99.90
22114;DHT22;11223;49.968;9.062;2022-12-24T11:21:40;12.90;99.90
22114;DHT22;11223;49.968;9.062;2022-12-24T11:26:39;12.70;99.90
22114;DHT22;11223;49.968;9.062;2022-12-24T11:31:47;12.60;99.90
22114;DHT22;11223;49.968;9.062;2022-12-24T11:34:31;12.60;99.90
22114;DHT22;11223;49.968;9.062;2022-12-24T11:37:22;12.70;99.90
22114;DHT22;11223;49.968;9.062;2022-12-24T11:39:50;12.80;99.90
22114;DHT22;11223;49.968;9.062;2022-12-24T11:42:36;13.00;99.90
22114;DHT22;11223;49.968;9.062;2022-12-24T11:45:13;13.20;99.90
22114;DHT22;11223;49.968;9.062;2022-12-24T11:47:41;13.10;99.90
22114;DHT22;11223;49.968;9.062;2022-12-24T11:50:30;13.10;99.90
22114;DHT22;11223;49.968;9.062;2022-12-24T11:55:58;12.90;99.90
22114;DHT22;11223;49.968;9.062;2022-12-24T11:58:29;12.70;99.90
22114;DHT22;11223;49.968;9.062;2022-12-24T12:01:09;12.60;99.90
22114;DHT22;11223;49.968;9.062;2022-12-24T12:03:44;12.40;99.90
22114;DHT22;11223;49.968;9.062;2022-12-24T12:06:26;12.30;99.90
22114;DHT22;11223;49.968;9.062;2022-12-24T12:08:57;12.30;99.90
22114;DHT22;11223;49.968;9.062;2022-12-24T12:11:25;12.30;99.90
22114;DHT22;11223;49.968;9.062;2022-12-24T12:13:53;12.30;99.90
22114;DHT22;11223;49.968;9.062;2022-12-24T12:19:18;12.20;99.90
22114;DHT22;11223;49.968;9.062;2022-12-24T12:21:46;12.10;99.90
22114;DHT22;11223;49.968;9.062;2022-12-24T12:24:20;12.00;99.90
22114;DHT22;11223;49.968;9.062;2022-12-24T12:26:48;11.90;99.90
22114;DHT22;11223;49.968;9.062;2022-12-24T12:29:23;11.80;99.90
22114;DHT22;11223;49.968;9.062;2022-12-24T12:31:55;11.70;99.90
22114;DHT22;11223;49.968;9.062;2022-12-24T12:34:41;11.80;99.90
22114;DHT22;11223;49.968;9.062;2022-12-24T12:37:13;11.80;99.90
22114;DHT22;11223;49.968;9.062;2022-12-24T12:39:42;11.80;99.90
22114;DHT22;11223;49.968;9.062;2022-12-24T12:42:16;11.60;99.90
22114;DHT22;11223;49.968;9.062;2022-12-24T12:45:09;11.60;99.90
22114;DHT22;11223;49.968;9.062;2022-12-24T12:50:45;11.40;99.90
22114;DHT22;11223;49.968;9.062;2022-12-24T12:53:32;11.30;99.90
22114;DHT22;11223;49.968;9.062;2022-12-24T12:59:25;11.30;99.90
22114;DHT22;11223;49.968;9.062;2022-12-24T13:01:41;11.30;99.90
22114;DHT22;11223;49.968;9.062;2022-12-24T13:07:15;11.20;99.90
22114;DHT22;11223;49.968;9.062;2022-12-24T13:21:22;11.00;99.90
22114;DHT22;11223;49.968;9.062;2022-12-24T13:23:49;11.00;99.90
22114;DHT22;11223;49.968;9.062;2022-12-24T13:26:16;11.10;99.90
22114;DHT22;11223;49.968;9.062;2022-12-24T13:28:42;11.20;99.90
22114;DHT22;11223;49.968;9.062;2022-12-24T13:33:58;11.30;99.90
22114;DHT22;11223;49.968;9.062;2022-12-24T13:36:25;11.30;99.90
22114;DHT22;11223;49.968;9.062;2022-12-24T13:39:18;11.30;99.90
22114;DHT22;11223;49.968;9.062;2022-12-24T13:41:51;11.30;99.90
22114;DHT22;11223;49.968;9.062;2022-12-24T13:44:21;11.30;99.90
22114;DHT22;11223;49.968;9.062;2022-12-24T13:46:56;11.40;99.90
22114;DHT22;11223;49.968;9.062;2022-12-24T13:49:49;11.40;99.90
22114;DHT22;11223;49.968;9.062;2022-12-24T13:52:22;11.40;99.90
22114;DHT22;11223;49.968;9.062;2022-12-24T13:55:00;11.30;99.90
22114;DHT22;11223;49.968;9.062;2022-12-24T13:57:39;11.10;99.90
22114;DHT22;11223;49.968;9.062;2022-12-24T14:03:00;10.90;99.90
22114;DHT22;11223;49.968;9.062;2022-12-24T14:05:37;10.70;99.90
22114;DHT22;11223;49.968;9.062;2022-12-24T14:08:07;10.60;99.90
22114;DHT22;11223;49.968;9.062;2022-12-24T14:11:01;10.50;99.90
22114;DHT22;11223;49.968;9.062;2022-12-24T14:16:24;10.30;99.90
22114;DHT22;11223;49.968;9.062;2022-12-24T14:19:00;10.20;99.90
22114;DHT22;11223;49.968;9.062;2022-12-24T14:21:35;10.10;99.90
22114;DHT22;11223;49.968;9.062;2022-12-24T14:24:05;10.00;99.90
22114;DHT22;11223;49.968;9.062;2022-12-24T14:26:49;10.00;99.90
22114;DHT22;11223;49.968;9.062;2022-12-24T14:32:14;9.80;99.90
22114;DHT22;11223;49.968;9.062;2022-12-24T14:34:40;9.80;99.90
22114;DHT22;11223;49.968;9.062;2022-12-24T14:37:07;9.80;99.90
22114;DHT22;11223;49.968;9.062;2022-12-24T14:39:38;9.80;99.90
22114;DHT22;11223;49.968;9.062;2022-12-24T14:47:29;9.70;99.90
22114;DHT22;11223;49.968;9.062;2022-12-24T14:55:36;9.50;99.90
22114;DHT22;11223;49.968;9.062;2022-12-24T14:58:30;9.50;99.90
22114;DHT22;11223;49.968;9.062;2022-12-24T15:01:02;9.50;99.90
22114;DHT22;11223;49.968;9.062;2022-12-24T15:03:30;9.40;99.90
22114;DHT22;11223;49.968;9.062;2022-12-24T15:05:59;9.40;99.90
22114;DHT22;11223;49.968;9.062;2022-12-24T15:08:32;9.30;99.90
22114;DHT22;11223;49.968;9.062;2022-12-24T15:11:02;9.30;99.90
22114;DHT22;11223;49.968;9.062;2022-12-24T15:13:39;9.20;99.90
22114;DHT22;11223;49.968;9.062;2022-12-24T15:16:13;9.20;99.90
22114;DHT22;11223;49.968;9.062;2022-12-24T15:18:46;9.20;99.90
22114;DHT22;11223;49.968;9.062;2022-12-24T15:21:29;9.20;99.90
22114;DHT22;11223;49.968;9.062;2022-12-24T15:23:55;9.10;99.90
22114;DHT22;11223;49.968;9.062;2022-12-24T15:26:33;9.10;99.90
22114;DHT22;11223;49.968;9.062;2022-12-24T15:29:13;9.00;99.90
22114;DHT22;11223;49.968;9.062;2022-12-24T15:31:41;8.90;99.90
22114;DHT22;11223;49.968;9.062;2022-12-24T15:34:28;8.80;99.90
22114;DHT22;11223;49.968;9.062;2022-12-24T15:37:02;8.70;99.90
22114;DHT22;11223;49.968;9.062;2022-12-24T15:39:29;8.70;99.90
22114;DHT22;11223;49.968;9.062;2022-12-24T15:41:55;8.60;99.90
22114;DHT22;11223;49.968;9.062;2022-12-24T15:44:42;8.60;99.90
22114;DHT22;11223;49.968;9.062;2022-12-24T15:47:15;8.50;99.90
22114;DHT22;11223;49.968;9.062;2022-12-24T15:49:46;8.50;99.90
22114;DHT22;11223;49.968;9.062;2022-12-24T15:52:14;8.50;99.90
22114;DHT22;11223;49.968;9.062;2022-12-24T15:54:46;8.50;99.90
22114;DHT22;11223;49.968;9.062;2022-12-24T15:57:20;8.50;99.90
22114;DHT22;11223;49.968;9.062;2022-12-24T15:59:55;8.40;99.90
22114;DHT22;11223;49.968;9.062;2022-12-24T16:02:41;8.40;99.90
22114;DHT22;11223;49.968;9.062;2022-12-24T16:08:24;8.30;99.90
22114;DHT22;11223;49.968;9.062;2022-12-24T16:11:05;8.30;99.90
22114;DHT22;11223;49.968;9.062;2022-12-24T16:16:18;8.30;99.90
22114;DHT22;11223;49.968;9.062;2022-12-24T16:18:57;8.20;99.90
22114;DHT22;11223;49.968;9.062;2022-12-24T16:21:38;8.20;99.90
22114;DHT22;11223;49.968;9.062;2022-12-24T16:26:31;8.10;99.90
22114;DHT22;11223;49.968;9.062;2022-12-24T16:28:57;8.00;99.90
22114;DHT22;11223;49.968;9.062;2022-12-24T16:31:35;8.00;99.90
22114;DHT22;11223;49.968;9.062;2022-12-24T16:34:02;7.90;99.90
22114;DHT22;11223;49.968;9.062;2022-12-24T16:36:29;7.80;99.90
22114;DHT22;11223;49.968;9.062;2022-12-24T16:38:59;7.70;99.90
22114;DHT22;11223;49.968;9.062;2022-12-24T16:41:43;7.70;99.90
22114;DHT22;11223;49.968;9.062;2022-12-24T16:44:28;7.60;99.90
22114;DHT22;11223;49.968;9.062;2022-12-24T16:46:55;7.60;99.90
22114;DHT22;11223;49.968;9.062;2022-12-24T16:49:22;7.50;99.90
22114;DHT22;11223;49.968;9.062;2022-12-24T16:51:48;7.50;99.90
22114;DHT22;11223;49.968;9.062;2022-12-24T16:54:14;7.50;99.90
22114;DHT22;11223;49.968;9.062;2022-12-24T16:56:41;7.50;99.90
22114;DHT22;11223;49.968;9.062;2022-12-24T16:59:18;7.50;99.90
22114;DHT22;11223;49.968;9.062;2022-12-24T17:01:45;7.40;99.90
22114;DHT22;11223;49.968;9.062;2022-12-24T17:04:10;7.40;99.90
22114;DHT22;11223;49.968;9.062;2022-12-24T17:06:36;7.40;99.90
22114;DHT22;11223;49.968;9.062;2022-12-24T17:09:02;7.40;99.90
22114;DHT22;11223;49.968;9.062;2022-12-24T17:11:28;7.40;99.90
22114;DHT22;11223;49.968;9.062;2022-12-24T17:13:54;7.30;99.90
22114;DHT22;11223;49.968;9.062;2022-12-24T17:16:22;7.30;99.90
22114;DHT22;11223;49.968;9.062;2022-12-24T17:18:51;7.30;99.90
22114;DHT22;11223;49.968;9.062;2022-12-24T17:21:17;7.30;99.90
22114;DHT22;11223;49.968;9.062;2022-12-24T17:23:43;7.20;99.90
22114;DHT22;11223;49.968;9.062;2022-12-24T17:26:12;7.20;99.90
22114;DHT22;11223;49.968;9.062;2022-12-24T17:28:39;7.10;99.90
22114;DHT22;11223;49.968;9.062;2022-12-24T17:31:15;7.10;99.90
22114;DHT22;11223;49.968;9.062;2022-12-24T17:33:42;7.10;99.90
22114;DHT22;11223;49.968;9.062;2022-12-24T17:36:08;7.10;99.90
22114;DHT22;11223;49.968;9.062;2022-12-24T17:38:35;7.10;99.90
22114;DHT22;11223;49.968;9.062;2022-12-24T17:41:10;7.10;99.90
22114;DHT22;11223;49.968;9.062;2022-12-24T17:43:36;7.00;99.90
22114;DHT22;11223;49.968;9.062;2022-12-24T17:46:04;7.00;99.90
22114;DHT22;11223;49.968;9.062;2022-12-24T17:48:30;7.00;99.90
22114;DHT22;11223;49.968;9.062;2022-12-24T17:50:56;6.90;99.90
22114;DHT22;11223;49.968;9.062;2022-12-24T17:53:22;7.00;99.90
22114;DHT22;11223;49.968;9.062;2022-12-24T17:55:48;6.90;99.90
22114;DHT22;11223;49.968;9.062;2022-12-24T17:58:13;7.00;99.90
22114;DHT22;11223;49.968;9.062;2022-12-24T18:00:40;7.00;99.90
22114;DHT22;11223;49.968;9.062;2022-12-24T18:03:06;7.00;99.90
22114;DHT22;11223;49.968;9.062;2022-12-24T18:05:35;7.10;99.90